sensor_id;sensor_type;location;lat;lon;timestamp;temperature;humidity
22940;DHT22;11636;52.086;5.090;2022-09-01T00:00:19;16.60;99.90
22940;DHT22;11636;52.086;5.090;2022-09-01T00:03:20;16.60;99.90
22940;DHT22;11636;52.086;5.090;2022-09-01T00:06:09;16.50;99.90
22940;DHT22;11636;52.086;5.090;2022-09-01T00:09:06;16.50;99.90
22940;DHT22;11636;52.086;5.090;2022-09-01T00:12:00;16.50;99.90
22940;DHT22;11636;52.086;5.090;2022-09-01T00:14:48;16.40;99.90
22940;DHT22;11636;52.086;5.090;2022-09-01T00:17:42;16.40;99.90
22940;DHT22;11636;52.086;5.090;2022-09-01T00:20:36;16.40;99.90
22940;DHT22;11636;52.086;5.090;2022-09-01T00:23:23;16.40;99.90
22940;DHT22;11636;52.086;5.090;2022-09-01T00:26:17;16.40;99.90
22940;DHT22;11636;52.086;5.090;2022-09-01T00:29:05;16.40;99.90
22940;DHT22;11636;52.086;5.090;2022-09-01T00:31:59;16.30;99.90
22940;DHT22;11636;52.086;5.090;2022-09-01T00:34:46;16.30;99.90
22940;DHT22;11636;52.086;5.090;2022-09-01T00:37:40;16.30;99.90
22940;DHT22;11636;52.086;5.090;2022-09-01T00:40:27;16.20;99.90
22940;DHT22;11636;52.086;5.090;2022-09-01T00:43:34;16.20;99.90
22940;DHT22;11636;52.086;5.090;2022-09-01T00:46:45;16.20;99.90
22940;DHT22;11636;52.086;5.090;2022-09-01T00:49:46;16.10;99.90
22940;DHT22;11636;52.086;5.090;2022-09-01T00:52:48;16.10;99.90
22940;DHT22;11636;52.086;5.090;2022-09-01T00:55:37;16.10;99.90
22940;DHT22;11636;52.086;5.090;2022-09-01T00:58:32;16.00;99.90
22940;DHT22;11636;52.086;5.090;2022-09-01T01:01:20;16.00;99.90
22940;DHT22;11636;52.086;5.090;2022-09-01T01:04:15;16.00;99.90
22940;DHT22;11636;52.086;5.090;2022-09-01T01:07:10;16.00;99.90
22940;DHT22;11636;52.086;5.090;2022-09-01T01:10:06;15.90;99.90
22940;DHT22;11636;52.086;5.090;2022-09-01T01:12:53;15.90;99.90
22940;DHT22;11636;52.086;5.090;2022-09-01T01:15:47;15.90;99.90
22940;DHT22;11636;52.086;5.090;2022-09-01T01:18:43;15.90;99.90
22940;DHT22;11636;52.086;5.090;2022-09-01T01:21:42;15.90;99.90
22940;DHT22;11636;52.086;5.090;2022-09-01T01:24:55;15.80;99.90
22940;DHT22;11636;52.086;5.090;2022-09-01T01:27:43;15.80;99.90
22940;DHT22;11636;52.086;5.090;2022-09-01T01:30:39;15.80;99.90
22940;DHT22;11636;52.086;5.090;2022-09-01T01:33:40;15.70;99.90
22940;DHT22;11636;52.086;5.090;2022-09-01T01:36:31;15.70;99.90
22940;DHT22;11636;52.086;5.090;2022-09-01T01:39:28;15.70;99.90
22940;DHT22;11636;52.086;5.090;2022-09-01T01:42:32;15.70;99.90
22940;DHT22;11636;52.086;5.090;2022-09-01T01:45:21;15.60;99.90
22940;DHT22;11636;52.086;5.090;2022-09-01T01:48:15;15.60;99.90
22940;DHT22;11636;52.086;5.090;2022-09-01T01:51:10;15.60;99.90
22940;DHT22;11636;52.086;5.090;2022-09-01T01:54:04;15.60;99.90
22940;DHT22;11636;52.086;5.090;2022-09-01T01:56:53;15.50;99.90
22940;DHT22;11636;52.086;5.090;2022-09-01T01:59:48;15.50;99.90
22940;DHT22;11636;52.086;5.090;2022-09-01T02:02:35;15.50;99.90
22940;DHT22;11636;52.086;5.090;2022-09-01T02:05:34;15.50;99.90
22940;DHT22;11636;52.086;5.090;2022-09-01T02:08:23;15.50;99.90
22940;DHT22;11636;52.086;5.090;2022-09-01T02:11:18;15.50;99.90
22940;DHT22;11636;52.086;5.090;2022-09-01T02:14:07;15.40;99.90
22940;DHT22;11636;52.086;5.090;2022-09-01T02:17:01;15.40;99.90
22940;DHT22;11636;52.086;5.090;2022-09-01T02:19:49;15.40;99.90
22940;DHT22;11636;52.086;5.090;2022-09-01T02:22:43;15.40;99.90
22940;DHT22;11636;52.086;5.090;2022-09-01T02:25:30;15.40;99.90
22940;DHT22;11636;52.086;5.090;2022-09-01T02:28:45;15.30;99.90
22940;DHT22;11636;52.086;5.090;2022-09-01T02:31:41;15.30;99.90
22940;DHT22;11636;52.086;5.090;2022-09-01T02:34:36;15.30;99.90
22940;DHT22;11636;52.086;5.090;2022-09-01T02:37:31;15.30;99.90
22940;DHT22;11636;52.086;5.090;2022-09-01T02:40:18;15.20;99.90
22940;DHT22;11636;52.086;5.090;2022-09-01T02:43:15;15.20;99.90
22940;DHT22;11636;52.086;5.090;2022-09-01T02:46:14;15.20;99.90
22940;DHT22;11636;52.086;5.090;2022-09-01T02:49:01;15.20;99.90
22940;DHT22;11636;52.086;5.090;2022-09-01T02:51:57;15.20;99.90
22940;DHT22;11636;52.086;5.090;2022-09-01T02:54:47;15.10;99.90
22940;DHT22;11636;52.086;5.090;2022-09-01T02:57:42;15.10;99.90
22940;DHT22;11636;52.086;5.090;2022-09-01T03:00:31;15.10;99.90
22940;DHT22;11636;52.086;5.090;2022-09-01T03:03:29;15.10;99.90
22940;DHT22;11636;52.086;5.090;2022-09-01T03:06:18;15.10;99.90
22940;DHT22;11636;52.086;5.090;2022-09-01T03:09:15;15.10;99.90
22940;DHT22;11636;52.086;5.090;2022-09-01T03:12:03;15.10;99.90
22940;DHT22;11636;52.086;5.090;2022-09-01T03:14:59;15.10;99.90
22940;DHT22;11636;52.086;5.090;2022-09-01T03:17:46;15.00;99.90
22940;DHT22;11636;52.086;5.090;2022-09-01T03:20:43;15.00;99.90
22940;DHT22;11636;52.086;5.090;2022-09-01T03:23:38;15.00;99.90
22940;DHT22;11636;52.086;5.090;2022-09-01T03:26:32;15.00;99.90
22940;DHT22;11636;52.086;5.090;2022-09-01T03:29:26;15.00;99.90
22940;DHT22;11636;52.086;5.090;2022-09-01T03:32:13;15.00;99.90
22940;DHT22;11636;52.086;5.090;2022-09-01T03:35:07;15.00;99.90
22940;DHT22;11636;52.086;5.090;2022-09-01T03:38:02;15.00;99.90
22940;DHT22;11636;52.086;5.090;2022-09-01T03:40:56;15.10;99.90
22940;DHT22;11636;52.086;5.090;2022-09-01T03:43:52;15.00;99.90
22940;DHT22;11636;52.086;5.090;2022-09-01T03:46:50;15.10;99.90
22940;DHT22;11636;52.086;5.090;2022-09-01T03:49:38;15.10;99.90
22940;DHT22;11636;52.086;5.090;2022-09-01T03:52:32;15.10;99.90
22940;DHT22;11636;52.086;5.090;2022-09-01T03:55:24;15.10;99.90
22940;DHT22;11636;52.086;5.090;2022-09-01T03:58:19;15.10;99.90
22940;DHT22;11636;52.086;5.090;2022-09-01T04:01:07;15.00;99.90
22940;DHT22;11636;52.086;5.090;2022-09-01T04:04:02;15.00;99.90
22940;DHT22;11636;52.086;5.090;2022-09-01T04:06:58;15.00;99.90
22940;DHT22;11636;52.086;5.090;2022-09-01T04:09:54;15.00;99.90
22940;DHT22;11636;52.086;5.090;2022-09-01T04:12:48;15.00;99.90
22940;DHT22;11636;52.086;5.090;2022-09-01T04:15:36;15.00;99.90
22940;DHT22;11636;52.086;5.090;2022-09-01T04:18:30;15.00;99.90
22940;DHT22;11636;52.086;5.090;2022-09-01T04:21:24;15.00;99.90
22940;DHT22;11636;52.086;5.090;2022-09-01T04:24:19;15.00;99.90
22940;DHT22;11636;52.086;5.090;2022-09-01T04:27:09;14.90;99.90
22940;DHT22;11636;52.086;5.090;2022-09-01T04:30:03;14.90;99.90
22940;DHT22;11636;52.086;5.090;2022-09-01T04:32:51;14.90;99.90
22940;DHT22;11636;52.086;5.090;2022-09-01T04:35:49;14.90;99.90
22940;DHT22;11636;52.086;5.090;2022-09-01T04:38:45;14.90;99.90
22940;DHT22;11636;52.086;5.090;2022-09-01T04:41:41;15.00;99.90
22940;DHT22;11636;52.086;5.090;2022-09-01T04:44:35;15.00;99.90
22940;DHT22;11636;52.086;5.090;2022-09-01T04:47:22;15.00;99.90
22940;DHT22;11636;52.086;5.090;2022-09-01T04:50:22;15.00;99.90
22940;DHT22;11636;52.086;5.090;2022-09-01T04:53:12;15.00;99.90
22940;DHT22;11636;52.086;5.090;2022-09-01T04:56:06;15.10;99.90
22940;DHT22;11636;52.086;5.090;2022-09-01T04:58:55;15.00;99.90
22940;DHT22;11636;52.086;5.090;2022-09-01T05:01:49;15.00;99.90
22940;DHT22;11636;52.086;5.090;2022-09-01T05:04:47;15.00;99.90
22940;DHT22;11636;52.086;5.090;2022-09-01T05:07:42;15.00;99.90
22940;DHT22;11636;52.086;5.090;2022-09-01T05:10:29;15.00;99.90
22940;DHT22;11636;52.086;5.090;2022-09-01T05:13:23;15.00;99.90
22940;DHT22;11636;52.086;5.090;2022-09-01T05:16:19;15.00;99.90
22940;DHT22;11636;52.086;5.090;2022-09-01T05:19:12;15.10;99.90
22940;DHT22;11636;52.086;5.090;2022-09-01T05:22:09;15.10;99.90
22940;DHT22;11636;52.086;5.090;2022-09-01T05:25:04;15.20;99.90
22940;DHT22;11636;52.086;5.090;2022-09-01T05:28:06;15.30;99.90
22940;DHT22;11636;52.086;5.090;2022-09-01T05:31:02;15.30;99.90
22940;DHT22;11636;52.086;5.090;2022-09-01T05:33:50;15.40;99.90
22940;DHT22;11636;52.086;5.090;2022-09-01T05:36:44;15.40;99.90
22940;DHT22;11636;52.086;5.090;2022-09-01T05:39:32;15.40;99.90
22940;DHT22;11636;52.086;5.090;2022-09-01T05:42:28;15.40;99.90
22940;DHT22;11636;52.086;5.090;2022-09-01T05:45:22;15.40;99.90
22940;DHT22;11636;52.086;5.090;2022-09-01T05:48:36;15.40;99.90
22940;DHT22;11636;52.086;5.090;2022-09-01T05:51:32;15.40;99.90
22940;DHT22;11636;52.086;5.090;2022-09-01T05:54:32;15.40;99.90
22940;DHT22;11636;52.086;5.090;2022-09-01T05:57:26;15.40;99.90
22940;DHT22;11636;52.086;5.090;2022-09-01T06:00:21;15.40;99.90
22940;DHT22;11636;52.086;5.090;2022-09-01T06:03:09;15.30;99.90
22940;DHT22;11636;52.086;5.090;2022-09-01T06:06:04;15.40;99.90
22940;DHT22;11636;52.086;5.090;2022-09-01T06:08:58;15.40;99.90
22940;DHT22;11636;52.086;5.090;2022-09-01T06:11:51;15.50;99.90
22940;DHT22;11636;52.086;5.090;2022-09-01T06:14:41;15.70;99.90
22940;DHT22;11636;52.086;5.090;2022-09-01T06:17:34;15.80;99.90
22940;DHT22;11636;52.086;5.090;2022-09-01T06:20:28;15.80;99.90
22940;DHT22;11636;52.086;5.090;2022-09-01T06:23:16;15.90;99.90
22940;DHT22;11636;52.086;5.090;2022-09-01T06:29:13;15.90;99.90
22940;DHT22;11636;52.086;5.090;2022-09-01T06:32:08;15.90;99.90
22940;DHT22;11636;52.086;5.090;2022-09-01T06:34:56;15.90;99.90
22940;DHT22;11636;52.086;5.090;2022-09-01T06:37:52;15.80;99.90
22940;DHT22;11636;52.086;5.090;2022-09-01T06:40:46;15.80;99.90
22940;DHT22;11636;52.086;5.090;2022-09-01T06:43:40;15.80;99.90
22940;DHT22;11636;52.086;5.090;2022-09-01T06:46:28;15.80;99.90
22940;DHT22;11636;52.086;5.090;2022-09-01T06:49:22;15.80;99.90
22940;DHT22;11636;52.086;5.090;2022-09-01T06:52:24;15.80;99.90
22940;DHT22;11636;52.086;5.090;2022-09-01T06:55:48;15.90;99.90
22940;DHT22;11636;52.086;5.090;2022-09-01T06:58:43;15.90;99.90
22940;DHT22;11636;52.086;5.090;2022-09-01T07:01:40;15.90;99.90
22940;DHT22;11636;52.086;5.090;2022-09-01T07:04:28;15.90;99.90
22940;DHT22;11636;52.086;5.090;2022-09-01T07:07:24;16.00;99.90
22940;DHT22;11636;52.086;5.090;2022-09-01T07:10:49;16.00;99.90
22940;DHT22;11636;52.086;5.090;2022-09-01T07:14:03;16.10;99.90
22940;DHT22;11636;52.086;5.090;2022-09-01T07:17:04;16.10;99.90
22940;DHT22;11636;52.086;5.090;2022-09-01T07:20:12;16.10;99.90
22940;DHT22;11636;52.086;5.090;2022-09-01T07:23:11;16.20;99.90
22940;DHT22;11636;52.086;5.090;2022-09-01T07:25:59;16.30;99.90
22940;DHT22;11636;52.086;5.090;2022-09-01T07:28:52;16.30;99.90
22940;DHT22;11636;52.086;5.090;2022-09-01T07:31:47;16.40;99.90
22940;DHT22;11636;52.086;5.090;2022-09-01T07:35:03;16.40;99.90
22940;DHT22;11636;52.086;5.090;2022-09-01T07:38:00;16.50;99.90
22940;DHT22;11636;52.086;5.090;2022-09-01T07:41:13;16.50;99.90
22940;DHT22;11636;52.086;5.090;2022-09-01T07:44:20;16.50;99.90
22940;DHT22;11636;52.086;5.090;2022-09-01T07:47:15;16.60;99.90
22940;DHT22;11636;52.086;5.090;2022-09-01T07:50:07;16.60;99.90
22940;DHT22;11636;52.086;5.090;2022-09-01T07:53:26;16.70;99.90
22940;DHT22;11636;52.086;5.090;2022-09-01T07:56:23;16.80;99.90
22940;DHT22;11636;52.086;5.090;2022-09-01T07:59:10;16.90;99.90
22940;DHT22;11636;52.086;5.090;2022-09-01T08:02:04;17.00;99.90
22940;DHT22;11636;52.086;5.090;2022-09-01T08:04:52;17.10;99.90
22940;DHT22;11636;52.086;5.090;2022-09-01T08:07:47;17.10;99.90
22940;DHT22;11636;52.086;5.090;2022-09-01T08:10:42;17.20;99.90
22940;DHT22;11636;52.086;5.090;2022-09-01T08:13:37;17.20;99.90
22940;DHT22;11636;52.086;5.090;2022-09-01T08:16:29;17.30;99.90
22940;DHT22;11636;52.086;5.090;2022-09-01T08:19:37;17.40;99.90
22940;DHT22;11636;52.086;5.090;2022-09-01T08:22:31;17.50;99.90
22940;DHT22;11636;52.086;5.090;2022-09-01T08:25:21;17.70;99.90
22940;DHT22;11636;52.086;5.090;2022-09-01T08:28:15;17.80;99.90
22940;DHT22;11636;52.086;5.090;2022-09-01T08:31:16;17.90;99.90
22940;DHT22;11636;52.086;5.090;2022-09-01T08:34:11;18.10;99.90
22940;DHT22;11636;52.086;5.090;2022-09-01T08:37:06;18.30;99.90
22940;DHT22;11636;52.086;5.090;2022-09-01T08:40:00;18.50;99.90
22940;DHT22;11636;52.086;5.090;2022-09-01T08:49:19;19.00;99.80
22940;DHT22;11636;52.086;5.090;2022-09-01T08:52:33;19.20;99.40
22940;DHT22;11636;52.086;5.090;2022-09-01T08:55:43;19.40;99.10
22940;DHT22;11636;52.086;5.090;2022-09-01T08:58:31;19.60;98.70
22940;DHT22;11636;52.086;5.090;2022-09-01T09:01:49;19.70;98.10
22940;DHT22;11636;52.086;5.090;2022-09-01T09:08:00;20.10;97.40
22940;DHT22;11636;52.086;5.090;2022-09-01T09:16:55;20.50;96.50
22940;DHT22;11636;52.086;5.090;2022-09-01T09:19:49;20.70;96.10
22940;DHT22;11636;52.086;5.090;2022-09-01T09:22:44;20.80;95.80
22940;DHT22;11636;52.086;5.090;2022-09-01T09:25:38;20.90;95.50
22940;DHT22;11636;52.086;5.090;2022-09-01T09:28:25;21.00;95.30
22940;DHT22;11636;52.086;5.090;2022-09-01T09:31:34;21.10;94.40
22940;DHT22;11636;52.086;5.090;2022-09-01T09:34:39;21.30;94.10
22940;DHT22;11636;52.086;5.090;2022-09-01T09:37:33;21.50;93.70
22940;DHT22;11636;52.086;5.090;2022-09-01T09:40:24;21.70;93.40
22940;DHT22;11636;52.086;5.090;2022-09-01T09:43:58;21.90;92.90
22940;DHT22;11636;52.086;5.090;2022-09-01T09:46:52;22.00;92.30
22940;DHT22;11636;52.086;5.090;2022-09-01T09:49:46;22.10;92.00
22940;DHT22;11636;52.086;5.090;2022-09-01T09:52:40;22.20;91.40
22940;DHT22;11636;52.086;5.090;2022-09-01T09:55:34;22.30;90.90
22940;DHT22;11636;52.086;5.090;2022-09-01T09:58:23;22.30;90.40
22940;DHT22;11636;52.086;5.090;2022-09-01T10:04:31;22.50;90.00
22940;DHT22;11636;52.086;5.090;2022-09-01T10:07:35;22.60;89.60
22940;DHT22;11636;52.086;5.090;2022-09-01T10:10:44;22.70;89.20
22940;DHT22;11636;52.086;5.090;2022-09-01T10:13:44;22.90;89.60
22940;DHT22;11636;52.086;5.090;2022-09-01T10:16:36;23.00;88.70
22940;DHT22;11636;52.086;5.090;2022-09-01T10:19:34;23.10;87.70
22940;DHT22;11636;52.086;5.090;2022-09-01T10:22:35;23.20;86.80
22940;DHT22;11636;52.086;5.090;2022-09-01T10:25:27;23.30;86.20
22940;DHT22;11636;52.086;5.090;2022-09-01T10:28:23;23.30;86.00
22940;DHT22;11636;52.086;5.090;2022-09-01T10:31:19;23.50;84.50
22940;DHT22;11636;52.086;5.090;2022-09-01T10:34:19;23.60;83.50
22940;DHT22;11636;52.086;5.090;2022-09-01T10:37:12;23.70;80.60
22940;DHT22;11636;52.086;5.090;2022-09-01T10:40:10;23.80;81.10
22940;DHT22;11636;52.086;5.090;2022-09-01T10:43:24;23.90;79.90
22940;DHT22;11636;52.086;5.090;2022-09-01T10:55:43;24.10;77.90
22940;DHT22;11636;52.086;5.090;2022-09-01T11:02:18;24.10;75.90
22940;DHT22;11636;52.086;5.090;2022-09-01T11:05:21;24.20;75.60
22940;DHT22;11636;52.086;5.090;2022-09-01T11:08:41;24.20;74.20
22940;DHT22;11636;52.086;5.090;2022-09-01T11:15:34;24.50;73.30
22940;DHT22;11636;52.086;5.090;2022-09-01T11:18:29;24.60;72.90
22940;DHT22;11636;52.086;5.090;2022-09-01T11:21:27;24.70;71.80
22940;DHT22;11636;52.086;5.090;2022-09-01T11:27:54;24.80;70.90
22940;DHT22;11636;52.086;5.090;2022-09-01T11:34:15;25.10;70.30
22940;DHT22;11636;52.086;5.090;2022-09-01T11:37:20;25.20;69.80
22940;DHT22;11636;52.086;5.090;2022-09-01T11:40:08;25.20;69.20
22940;DHT22;11636;52.086;5.090;2022-09-01T11:43:07;25.20;67.60
22940;DHT22;11636;52.086;5.090;2022-09-01T11:46:11;25.30;67.50
22940;DHT22;11636;52.086;5.090;2022-09-01T11:49:30;25.40;68.10
22940;DHT22;11636;52.086;5.090;2022-09-01T11:52:27;25.50;67.70
22940;DHT22;11636;52.086;5.090;2022-09-01T11:55:31;25.60;66.80
22940;DHT22;11636;52.086;5.090;2022-09-01T12:01:33;25.60;64.20
22940;DHT22;11636;52.086;5.090;2022-09-01T12:04:34;25.60;64.00
22940;DHT22;11636;52.086;5.090;2022-09-01T12:07:46;25.70;64.00
22940;DHT22;11636;52.086;5.090;2022-09-01T12:10:36;25.80;63.20
22940;DHT22;11636;52.086;5.090;2022-09-01T12:13:31;25.90;63.60
22940;DHT22;11636;52.086;5.090;2022-09-01T12:16:20;26.00;62.60
22940;DHT22;11636;52.086;5.090;2022-09-01T12:19:23;26.10;62.10
22940;DHT22;11636;52.086;5.090;2022-09-01T12:22:25;26.20;61.40
22940;DHT22;11636;52.086;5.090;2022-09-01T12:28:12;26.40;60.20
22940;DHT22;11636;52.086;5.090;2022-09-01T12:31:13;26.40;58.90
22940;DHT22;11636;52.086;5.090;2022-09-01T12:34:35;26.30;58.00
22940;DHT22;11636;52.086;5.090;2022-09-01T12:37:24;26.20;57.10
22940;DHT22;11636;52.086;5.090;2022-09-01T12:40:33;26.20;57.70
22940;DHT22;11636;52.086;5.090;2022-09-01T12:43:30;26.20;57.90
22940;DHT22;11636;52.086;5.090;2022-09-01T12:46:43;26.30;57.60
22940;DHT22;11636;52.086;5.090;2022-09-01T12:49:42;26.50;58.10
22940;DHT22;11636;52.086;5.090;2022-09-01T12:52:46;26.70;57.80
22940;DHT22;11636;52.086;5.090;2022-09-01T12:55:54;26.70;57.40
22940;DHT22;11636;52.086;5.090;2022-09-01T12:58:50;26.80;58.40
22940;DHT22;11636;52.086;5.090;2022-09-01T13:01:47;26.90;58.00
22940;DHT22;11636;52.086;5.090;2022-09-01T13:04:35;26.90;56.80
22940;DHT22;11636;52.086;5.090;2022-09-01T13:07:28;26.90;56.80
22940;DHT22;11636;52.086;5.090;2022-09-01T13:10:24;26.90;56.50
22940;DHT22;11636;52.086;5.090;2022-09-01T13:13:22;26.90;56.20
22940;DHT22;11636;52.086;5.090;2022-09-01T13:16:12;26.90;56.30
22940;DHT22;11636;52.086;5.090;2022-09-01T13:19:07;26.90;57.10
22940;DHT22;11636;52.086;5.090;2022-09-01T13:22:13;27.10;56.90
22940;DHT22;11636;52.086;5.090;2022-09-01T13:25:01;27.10;56.10
22940;DHT22;11636;52.086;5.090;2022-09-01T13:27:54;27.10;56.00
22940;DHT22;11636;52.086;5.090;2022-09-01T13:30:53;27.20;56.30
22940;DHT22;11636;52.086;5.090;2022-09-01T13:34:07;27.20;56.00
22940;DHT22;11636;52.086;5.090;2022-09-01T13:37:09;27.30;56.40
22940;DHT22;11636;52.086;5.090;2022-09-01T13:39:56;27.40;55.90
22940;DHT22;11636;52.086;5.090;2022-09-01T13:42:52;27.40;56.40
22940;DHT22;11636;52.086;5.090;2022-09-01T13:45:39;27.50;55.50
22940;DHT22;11636;52.086;5.090;2022-09-01T13:48:33;27.40;55.30
22940;DHT22;11636;52.086;5.090;2022-09-01T13:51:41;27.40;55.90
22940;DHT22;11636;52.086;5.090;2022-09-01T13:54:34;27.40;55.10
22940;DHT22;11636;52.086;5.090;2022-09-01T13:57:28;27.40;55.70
22940;DHT22;11636;52.086;5.090;2022-09-01T14:00:25;27.50;55.90
22940;DHT22;11636;52.086;5.090;2022-09-01T14:03:22;27.70;55.40
22940;DHT22;11636;52.086;5.090;2022-09-01T14:06:09;27.70;55.30
22940;DHT22;11636;52.086;5.090;2022-09-01T14:09:03;27.70;54.10
22940;DHT22;11636;52.086;5.090;2022-09-01T14:11:54;27.70;54.10
22940;DHT22;11636;52.086;5.090;2022-09-01T14:14:48;27.60;54.00
22940;DHT22;11636;52.086;5.090;2022-09-01T14:17:56;27.50;53.10
22940;DHT22;11636;52.086;5.090;2022-09-01T14:20:51;27.60;54.10
22940;DHT22;11636;52.086;5.090;2022-09-01T14:23:38;27.60;53.50
22940;DHT22;11636;52.086;5.090;2022-09-01T14:26:32;27.60;53.50
22940;DHT22;11636;52.086;5.090;2022-09-01T14:29:26;27.60;53.50
22940;DHT22;11636;52.086;5.090;2022-09-01T14:32:21;27.60;53.50
22940;DHT22;11636;52.086;5.090;2022-09-01T14:35:21;27.60;53.50
22940;DHT22;11636;52.086;5.090;2022-09-01T14:38:17;27.60;53.40
22940;DHT22;11636;52.086;5.090;2022-09-01T14:41:16;27.60;52.30
22940;DHT22;11636;52.086;5.090;2022-09-01T14:44:07;27.50;53.00
22940;DHT22;11636;52.086;5.090;2022-09-01T14:47:01;27.50;53.20
22940;DHT22;11636;52.086;5.090;2022-09-01T14:49:49;27.50;53.00
22940;DHT22;11636;52.086;5.090;2022-09-01T14:52:42;27.60;53.60
22940;DHT22;11636;52.086;5.090;2022-09-01T14:55:30;27.60;53.80
22940;DHT22;11636;52.086;5.090;2022-09-01T14:58:26;27.60;54.10
22940;DHT22;11636;52.086;5.090;2022-09-01T15:01:20;27.60;54.10
22940;DHT22;11636;52.086;5.090;2022-09-01T15:04:21;27.60;54.00
22940;DHT22;11636;52.086;5.090;2022-09-01T15:07:14;27.60;54.10
22940;DHT22;11636;52.086;5.090;2022-09-01T15:10:03;27.60;53.70
22940;DHT22;11636;52.086;5.090;2022-09-01T15:13:11;27.60;53.00
22940;DHT22;11636;52.086;5.090;2022-09-01T15:15:59;27.50;52.80
22940;DHT22;11636;52.086;5.090;2022-09-01T15:18:54;27.50;53.40
22940;DHT22;11636;52.086;5.090;2022-09-01T15:21:42;27.50;53.00
22940;DHT22;11636;52.086;5.090;2022-09-01T15:24:37;27.40;53.30
22940;DHT22;11636;52.086;5.090;2022-09-01T15:27:24;27.30;53.40
22940;DHT22;11636;52.086;5.090;2022-09-01T15:30:21;27.30;53.40
22940;DHT22;11636;52.086;5.090;2022-09-01T15:33:08;27.20;53.70
22940;DHT22;11636;52.086;5.090;2022-09-01T15:36:02;27.20;53.80
22940;DHT22;11636;52.086;5.090;2022-09-01T15:38:57;27.20;53.80
22940;DHT22;11636;52.086;5.090;2022-09-01T15:41:51;27.20;53.80
22940;DHT22;11636;52.086;5.090;2022-09-01T15:44:46;27.10;54.00
22940;DHT22;11636;52.086;5.090;2022-09-01T15:47:34;26.90;53.90
22940;DHT22;11636;52.086;5.090;2022-09-01T15:50:32;26.80;54.60
22940;DHT22;11636;52.086;5.090;2022-09-01T15:53:19;26.70;54.70
22940;DHT22;11636;52.086;5.090;2022-09-01T15:56:12;26.40;54.80
22940;DHT22;11636;52.086;5.090;2022-09-01T15:59:00;26.30;55.30
22940;DHT22;11636;52.086;5.090;2022-09-01T16:01:54;26.00;55.40
22940;DHT22;11636;52.086;5.090;2022-09-01T16:04:43;25.80;55.30
22940;DHT22;11636;52.086;5.090;2022-09-01T16:07:54;25.60;55.70
22940;DHT22;11636;52.086;5.090;2022-09-01T16:11:18;25.40;56.00
22940;DHT22;11636;52.086;5.090;2022-09-01T16:14:12;25.20;56.80
22940;DHT22;11636;52.086;5.090;2022-09-01T16:17:06;25.10;57.20
22940;DHT22;11636;52.086;5.090;2022-09-01T16:20:15;25.00;57.60
22940;DHT22;11636;52.086;5.090;2022-09-01T16:23:19;24.90;57.80
22940;DHT22;11636;52.086;5.090;2022-09-01T16:26:07;24.70;57.90
22940;DHT22;11636;52.086;5.090;2022-09-01T16:29:02;24.60;58.00
22940;DHT22;11636;52.086;5.090;2022-09-01T16:31:54;24.60;58.90
22940;DHT22;11636;52.086;5.090;2022-09-01T16:34:50;24.50;59.00
22940;DHT22;11636;52.086;5.090;2022-09-01T16:43:43;24.20;58.80
22940;DHT22;11636;52.086;5.090;2022-09-01T16:46:40;24.10;58.70
22940;DHT22;11636;52.086;5.090;2022-09-01T16:49:56;24.10;59.00
22940;DHT22;11636;52.086;5.090;2022-09-01T16:56:06;24.00;59.70
22940;DHT22;11636;52.086;5.090;2022-09-01T17:06:18;23.80;61.40
22940;DHT22;11636;52.086;5.090;2022-09-01T17:16:40;23.50;62.00
22940;DHT22;11636;52.086;5.090;2022-09-01T17:19:38;23.50;62.30
22940;DHT22;11636;52.086;5.090;2022-09-01T17:22:26;23.40;62.30
22940;DHT22;11636;52.086;5.090;2022-09-01T17:25:30;23.40;61.30
22940;DHT22;11636;52.086;5.090;2022-09-01T17:28:26;23.40;61.70
22940;DHT22;11636;52.086;5.090;2022-09-01T17:31:36;23.30;62.30
22940;DHT22;11636;52.086;5.090;2022-09-01T17:50:51;22.90;63.40
22940;DHT22;11636;52.086;5.090;2022-09-01T18:06:55;22.50;64.40
22940;DHT22;11636;52.086;5.090;2022-09-01T18:09:54;22.40;65.00
22940;DHT22;11636;52.086;5.090;2022-09-01T18:12:51;22.30;65.60
22940;DHT22;11636;52.086;5.090;2022-09-01T18:15:51;22.20;66.10
22940;DHT22;11636;52.086;5.090;2022-09-01T18:18:48;22.10;66.70
22940;DHT22;11636;52.086;5.090;2022-09-01T18:21:48;22.00;67.60
22940;DHT22;11636;52.086;5.090;2022-09-01T18:24:57;22.00;67.90
22940;DHT22;11636;52.086;5.090;2022-09-01T18:28:10;21.90;69.10
22940;DHT22;11636;52.086;5.090;2022-09-01T18:40:42;21.60;69.70
22940;DHT22;11636;52.086;5.090;2022-09-01T18:47:02;21.50;70.90
22940;DHT22;11636;52.086;5.090;2022-09-01T18:50:02;21.40;71.40
22940;DHT22;11636;52.086;5.090;2022-09-01T18:53:22;21.30;71.60
22940;DHT22;11636;52.086;5.090;2022-09-01T19:03:02;21.10;71.20
22940;DHT22;11636;52.086;5.090;2022-09-01T19:09:20;21.00;71.80
22940;DHT22;11636;52.086;5.090;2022-09-01T19:12:13;21.00;72.90
22940;DHT22;11636;52.086;5.090;2022-09-01T19:15:13;20.90;73.70
22940;DHT22;11636;52.086;5.090;2022-09-01T19:18:09;20.90;73.50
22940;DHT22;11636;52.086;5.090;2022-09-01T19:21:06;20.80;74.30
22940;DHT22;11636;52.086;5.090;2022-09-01T19:27:10;20.70;74.30
22940;DHT22;11636;52.086;5.090;2022-09-01T19:30:05;20.60;74.90
22940;DHT22;11636;52.086;5.090;2022-09-01T19:33:02;20.60;74.20
22940;DHT22;11636;52.086;5.090;2022-09-01T19:36:06;20.50;73.90
22940;DHT22;11636;52.086;5.090;2022-09-01T19:38:55;20.50;74.30
22940;DHT22;11636;52.086;5.090;2022-09-01T19:42:03;20.50;74.90
22940;DHT22;11636;52.086;5.090;2022-09-01T19:54:43;20.30;75.50
22940;DHT22;11636;52.086;5.090;2022-09-01T20:00:49;20.20;76.20
22940;DHT22;11636;52.086;5.090;2022-09-01T20:03:48;20.10;76.30
22940;DHT22;11636;52.086;5.090;2022-09-01T20:06:40;20.10;76.60
22940;DHT22;11636;52.086;5.090;2022-09-01T20:10:21;20.00;76.30
22940;DHT22;11636;52.086;5.090;2022-09-01T20:19:43;19.90;77.00
22940;DHT22;11636;52.086;5.090;2022-09-01T20:26:01;19.80;77.20
22940;DHT22;11636;52.086;5.090;2022-09-01T20:29:10;19.80;77.80
22940;DHT22;11636;52.086;5.090;2022-09-01T20:32:07;19.70;78.00
22940;DHT22;11636;52.086;5.090;2022-09-01T20:35:05;19.70;77.90
22940;DHT22;11636;52.086;5.090;2022-09-01T20:38:15;19.60;78.00
22940;DHT22;11636;52.086;5.090;2022-09-01T20:41:45;19.60;78.20
22940;DHT22;11636;52.086;5.090;2022-09-01T20:47:38;19.50;78.30
22940;DHT22;11636;52.086;5.090;2022-09-01T20:50:57;19.50;77.80
22940;DHT22;11636;52.086;5.090;2022-09-01T20:54:04;19.50;78.00
22940;DHT22;11636;52.086;5.090;2022-09-01T21:00:21;19.40;77.10
22940;DHT22;11636;52.086;5.090;2022-09-01T21:06:52;19.40;77.20
22940;DHT22;11636;52.086;5.090;2022-09-01T21:12:50;19.30;76.90
22940;DHT22;11636;52.086;5.090;2022-09-01T21:15:50;19.30;76.70
22940;DHT22;11636;52.086;5.090;2022-09-01T21:22:11;19.30;76.60
22940;DHT22;11636;52.086;5.090;2022-09-01T21:25:08;19.30;76.10